Time;durP1;ratioP1;P1;durP2;ratioP2;P2;SDS_P1;SDS_P2;PMS_P1;PMS_P2;Temp;Humidity;BMP_temperature;BMP_pressure;BME280_temperature;BME280_humidity;BME280_pressure;Samples;Min_cycle;Max_cycle;Signal;HPM_P1;HPM_P2
2023/03/31 00:00:51;;;;;;;10.63;2.72;;;;;;;10.43;98.14;99799.84;5027402;28;20041;-66
2023/03/31 00:03:22;;;;;;;4.13;2.00;;;;;;;10.42;98.27;99799.00;5011607;28;20076;-66
2023/03/31 00:05:57;;;;;;;9.70;2.03;;;;;;;10.42;98.36;99798.19;5027578;28;20047;-66
2023/03/31 00:08:28;;;;;;;11.48;2.42;;;;;;;10.43;98.09;99794.59;5007379;28;20061;-66
2023/03/31 00:10:59;;;;;;;7.32;1.73;;;;;;;10.41;97.90;99799.13;5027491;28;20132;-66
2023/03/31 00:13:28;;;;;;;7.88;2.20;;;;;;;10.44;97.94;99791.84;5030953;28;20059;-67
2023/03/31 00:15:56;;;;;;;10.88;2.00;;;;;;;10.44;97.58;99791.84;5031117;28;20406;-69
2023/03/31 00:18:25;;;;;;;5.65;2.08;;;;;;;10.38;98.49;99792.28;5010688;28;20050;-67
2023/03/31 00:21:04;;;;;;;2.40;1.50;;;;;;;10.47;96.82;99793.41;5029255;28;20498;-67
2023/03/31 00:23:31;;;;;;;5.55;2.28;;;;;;;10.50;96.78;99783.53;5025842;28;20046;-67
2023/03/31 00:25:59;;;;;;;12.18;2.72;;;;;;;10.48;96.70;99787.19;5034433;28;20049;-66
2023/03/31 00:28:26;;;;;;;11.02;2.38;;;;;;;10.43;97.08;99777.00;5009151;28;20118;-67
2023/03/31 00:30:59;;;;;;;5.78;1.90;;;;;;;10.40;97.26;99785.13;5032106;28;20618;-67
2023/03/31 00:33:27;;;;;;;5.28;1.85;;;;;;;10.43;97.04;99778.81;5055122;22;20056;-68
2023/03/31 00:35:54;;;;;;;10.00;2.05;;;;;;;10.42;97.06;99774.50;5030362;28;20132;-68
2023/03/31 00:38:22;;;;;;;5.32;1.83;;;;;;;10.37;96.83;99774.81;5042325;28;20053;-69
2023/03/31 00:40:49;;;;;;;9.68;2.67;;;;;;;10.38;97.32;99768.59;5038554;28;20085;-68
2023/03/31 00:43:27;;;;;;;8.02;2.03;;;;;;;10.40;97.04;99766.69;5024540;28;20052;-68
2023/03/31 00:46:02;;;;;;;5.10;2.30;;;;;;;10.39;97.21;99772.91;5026883;28;20044;-70
2023/03/31 00:48:30;;;;;;;6.65;2.63;;;;;;;10.46;96.72;99768.91;5009412;28;20128;-67
2023/03/31 00:50:58;;;;;;;7.40;2.05;;;;;;;10.42;96.88;99766.59;5031775;28;20132;-68
2023/03/31 00:53:28;;;;;;;9.55;2.35;;;;;;;10.35;97.32;99756.50;5040263;28;20058;-67
2023/03/31 00:55:59;;;;;;;6.00;1.70;;;;;;;10.39;97.14;99752.69;5026864;28;20049;-67
2023/03/31 00:58:27;;;;;;;4.40;1.60;;;;;;;10.35;97.09;99759.13;5033821;28;20052;-68
2023/03/31 01:00:56;;;;;;;7.28;1.90;;;;;;;10.29;97.12;99759.59;5048700;28;20507;-68
2023/03/31 01:03:24;;;;;;;7.60;1.98;;;;;;;10.29;97.54;99750.84;5012607;28;20565;-69
2023/03/31 01:05:55;;;;;;;5.85;2.13;;;;;;;10.27;97.49;99750.13;5027104;28;20064;-69
2023/03/31 01:08:24;;;;;;;15.98;2.65;;;;;;;10.26;97.52;99746.63;5043923;28;20076;-69
2023/03/31 01:10:57;;;;;;;6.28;2.30;;;;;;;10.21;97.20;99740.84;5029073;28;20049;-68
2023/03/31 01:13:26;;;;;;;6.47;1.85;;;;;;;10.18;97.97;99733.19;5030796;28;20055;-70
2023/03/31 01:15:53;;;;;;;7.47;2.17;;;;;;;10.18;97.40;99737.59;5048486;28;20160;-68
2023/03/31 01:18:21;;;;;;;10.73;2.30;;;;;;;10.09;98.18;99723.31;5028345;28;20061;-69
2023/03/31 01:20:48;;;;;;;6.10;1.95;;;;;;;10.15;98.05;99722.88;5027599;28;20159;-69
2023/03/31 01:23:30;;;;;;;5.50;1.60;;;;;;;10.14;97.17;99719.41;5041529;28;20053;-68
2023/03/31 01:26:28;;;;;;;5.95;1.95;;;;;;;9.99;98.06;99717.84;5042235;28;20047;-71
2023/03/31 01:29:10;;;;;;;4.82;2.05;;;;;;;9.98;98.02;99716.19;5032690;28;20077;-68
2023/03/31 01:31:52;;;;;;;4.32;1.48;;;;;;;9.99;97.77;99717.00;5041701;28;20437;-68
2023/03/31 01:34:38;;;;;;;9.73;2.60;;;;;;;9.92;98.28;99708.75;5048573;28;20209;-68
2023/03/31 01:37:14;;;;;;;8.70;2.22;;;;;;;9.85;98.58;99705.69;5047180;28;20079;-70
2023/03/31 01:40:09;;;;;;;7.00;1.73;;;;;;;9.94;98.23;99708.63;5047635;28;20053;-69
2023/03/31 01:42:51;;;;;;;6.63;1.63;;;;;;;9.92;98.29;99702.66;5043546;28;20049;-70
2023/03/31 01:45:37;;;;;;;13.23;2.05;;;;;;;9.93;98.36;99701.69;5032103;28;20068;-68
2023/03/31 01:48:17;;;;;;;10.88;1.95;;;;;;;9.92;98.16;99698.22;5046128;28;20462;-68
2023/03/31 01:50:54;;;;;;;7.43;1.67;;;;;;;9.87;98.13;99701.19;5048561;28;20056;-69
2023/03/31 01:53:57;;;;;;;4.03;1.27;;;;;;;9.87;98.74;99685.41;5051100;28;20144;-69
2023/03/31 01:56:33;;;;;;;4.25;1.55;;;;;;;9.90;98.18;99697.47;5017750;28;20049;-69
2023/03/31 01:59:16;;;;;;;4.50;1.88;;;;;;;9.85;98.63;99689.06;5031317;28;20057;-68
2023/03/31 02:02:12;;;;;;;5.65;1.63;;;;;;;9.82;98.52;99689.31;5030974;28;20501;-68
2023/03/31 02:04:45;;;;;;;6.10;1.40;;;;;;;9.84;98.76;99682.16;5027890;28;20056;-68
2023/03/31 02:07:18;;;;;;;4.95;1.50;;;;;;;9.80;98.69;99688.56;5040933;28;20071;-69
2023/03/31 02:09:49;;;;;;;8.02;2.13;;;;;;;9.78;98.92;99678.16;5025454;28;20044;-68
2023/03/31 02:12:18;;;;;;;10.57;1.92;;;;;;;9.79;98.43;99681.63;5029709;28;20391;-70
2023/03/31 02:14:47;;;;;;;3.97;1.90;;;;;;;9.78;99.59;99685.22;5009653;28;20049;-69
2023/03/31 02:17:18;;;;;;;5.13;1.65;;;;;;;9.76;99.49;99677.41;5034037;28;20056;-68
2023/03/31 02:19:49;;;;;;;21.55;1.95;;;;;;;9.79;98.83;99669.34;5028672;28;20157;-71
2023/03/31 02:22:18;;;;;;;6.43;2.20;;;;;;;9.77;98.77;99665.97;5023778;28;20045;-69
2023/03/31 02:24:47;;;;;;;4.40;1.52;;;;;;;9.73;99.55;99663.69;5042721;28;20287;-69
2023/03/31 02:27:20;;;;;;;6.20;2.00;;;;;;;9.73;99.59;99659.25;5025155;28;20436;-69
2023/03/31 02:29:48;;;;;;;6.63;2.08;;;;;;;9.79;99.11;99653.56;5022489;28;20045;-69
2023/03/31 02:32:40;;;;;;;5.22;1.33;;;;;;;9.73;99.70;99656.63;5006418;28;20048;-68
2023/03/31 02:35:19;;;;;;;4.10;1.65;;;;;;;9.75;100.00;99662.59;5044873;28;20163;-68
2023/03/31 02:37:48;;;;;;;5.85;1.50;;;;;;;9.80;98.88;99657.03;5027715;28;20108;-68
2023/03/31 02:40:18;;;;;;;6.35;1.85;;;;;;;9.73;99.54;99659.25;5043153;28;20040;-69
2023/03/31 02:42:45;;;;;;;6.78;1.33;;;;;;;9.75;99.76;99653.88;5041939;28;20040;-71
2023/03/31 02:45:37;;;;;;;4.45;1.70;;;;;;;9.77;99.27;99644.97;5042717;28;20053;-69
2023/03/31 02:48:13;;;;;;;4.43;1.50;;;;;;;9.76;99.60;99643.25;5046320;28;20167;-69
2023/03/31 02:51:01;;;;;;;6.03;1.77;;;;;;;9.80;99.63;99638.63;5044180;28;20579;-69
2023/03/31 02:53:32;;;;;;;3.20;1.23;;;;;;;9.80;99.23;99638.63;5027014;28;20548;-67
2023/03/31 02:56:03;;;;;;;7.43;1.67;;;;;;;9.82;98.67;99639.38;5023632;28;20140;-69
2023/03/31 02:58:36;;;;;;;7.90;1.80;;;;;;;9.85;99.16;99639.97;5044025;28;20152;-69
2023/03/31 03:01:10;;;;;;;6.30;1.35;;;;;;;9.76;99.14;99632.75;5022948;28;20052;-70
2023/03/31 03:03:44;;;;;;;7.65;1.45;;;;;;;9.80;98.84;99622.84;5023923;28;20596;-68
2023/03/31 03:06:17;;;;;;;5.72;1.73;;;;;;;9.77;99.31;99629.19;5021841;28;20520;-70
2023/03/31 03:09:17;;;;;;;6.78;1.85;;;;;;;9.81;99.22;99632.41;5044568;28;20045;-69
2023/03/31 03:12:02;;;;;;;6.00;1.88;;;;;;;9.78;99.67;99617.72;5048074;28;20056;-67
2023/03/31 03:14:39;;;;;;;4.85;1.38;;;;;;;9.79;99.38;99623.81;5045051;28;20123;-70
2023/03/31 03:17:11;;;;;;;7.63;2.20;;;;;;;9.81;99.40;99619.28;5047179;28;20567;-69
2023/03/31 03:19:40;;;;;;;9.45;1.67;;;;;;;9.78;99.41;99616.88;5034029;28;20071;-70
2023/03/31 03:22:08;;;;;;;10.20;1.80;;;;;;;9.76;99.89;99618.75;5044082;28;20045;-68
2023/03/31 03:24:35;;;;;;;11.05;2.13;;;;;;;9.79;99.84;99618.56;5051923;28;20127;-69
2023/03/31 03:27:03;;;;;;;10.68;2.15;;;;;;;9.81;99.59;99622.72;5026501;28;20593;-68
2023/03/31 03:29:30;;;;;;;10.23;2.45;;;;;;;9.83;99.23;99614.75;5042419;28;20060;-69
2023/03/31 03:31:57;;;;;;;6.70;1.83;;;;;;;9.82;99.69;99607.81;5048975;28;20056;-67
2023/03/31 03:34:25;;;;;;;5.95;1.48;;;;;;;9.83;100.00;99609.50;5041117;28;20116;-68
2023/03/31 03:36:53;;;;;;;4.75;1.45;;;;;;;9.93;99.60;99597.38;5042653;28;20548;-68
2023/03/31 03:39:20;;;;;;;4.15;1.40;;;;;;;9.91;99.21;99599.28;5029794;28;20137;-69
2023/03/31 03:41:47;;;;;;;5.03;1.40;;;;;;;9.93;99.50;99600.00;5045242;28;20080;-71
2023/03/31 03:44:14;;;;;;;6.65;1.58;;;;;;;9.93;99.80;99601.78;5047769;28;20053;-69
2023/03/31 03:46:41;;;;;;;5.88;1.50;;;;;;;9.96;99.45;99585.78;5049976;28;20136;-68
2023/03/31 03:49:09;;;;;;;8.25;2.13;;;;;;;10.02;98.97;99591.44;5049856;28;20138;-68
2023/03/31 03:51:36;;;;;;;7.43;1.73;;;;;;;10.01;99.40;99587.13;5048435;28;20074;-69
2023/03/31 03:54:03;;;;;;;5.38;1.38;;;;;;;10.07;99.41;99580.56;5046772;28;20468;-68
2023/03/31 03:56:30;;;;;;;3.08;1.17;;;;;;;10.06;99.56;99576.28;5047602;28;20124;-69
2023/03/31 03:58:58;;;;;;;9.68;2.67;;;;;;;10.01;100.00;99584.50;5032938;28;20143;-67
2023/03/31 04:01:25;;;;;;;4.50;1.27;;;;;;;10.05;99.90;99579.88;5027947;28;20053;-67
2023/03/31 04:03:52;;;;;;;4.88;1.58;;;;;;;10.01;100.00;99571.34;5046307;28;20048;-69
2023/03/31 04:06:19;;;;;;;6.55;1.10;;;;;;;10.00;99.99;99571.47;5039239;28;20072;-68
2023/03/31 04:08:46;;;;;;;3.63;1.25;;;;;;;10.03;100.00;99569.44;5041318;28;20304;-69
2023/03/31 04:11:16;;;;;;;6.70;1.45;;;;;;;10.02;100.00;99557.25;5027193;28;20080;-70
2023/03/31 04:13:45;;;;;;;9.75;1.83;;;;;;;10.02;100.00;99552.00;5045486;28;20048;-68
2023/03/31 04:16:13;;;;;;;6.68;1.25;;;;;;;9.94;100.00;99553.50;5045564;28;20055;-69
2023/03/31 04:18:41;;;;;;;6.63;2.10;;;;;;;9.96;100.00;99560.34;5047826;28;20247;-68
2023/03/31 04:21:11;;;;;;;4.93;1.40;;;;;;;9.94;100.00;99564.03;5040665;28;20061;-69
2023/03/31 04:23:47;;;;;;;4.72;1.42;;;;;;;9.98;100.00;99554.97;5046913;28;20053;-68
2023/03/31 04:26:17;;;;;;;6.75;1.90;;;;;;;9.97;100.00;99554.13;5041589;28;20063;-68
2023/03/31 04:28:49;;;;;;;6.72;1.67;;;;;;;9.99;100.00;99549.56;5026405;28;20048;-68
2023/03/31 04:31:24;;;;;;;5.15;1.40;;;;;;;10.03;100.00;99544.94;5040003;28;20051;-70
2023/03/31 04:33:52;;;;;;;5.43;1.40;;;;;;;9.95;100.00;99529.75;5024507;28;20376;-71
2023/03/31 04:36:20;;;;;;;7.35;1.70;;;;;;;9.92;100.00;99540.47;5044752;28;20048;-69
2023/03/31 04:38:55;;;;;;;5.03;1.77;;;;;;;9.97;100.00;99538.34;5043362;28;20053;-69
2023/03/31 04:41:23;;;;;;;7.13;1.75;;;;;;;9.95;100.00;99527.13;5037820;28;20144;-71
2023/03/31 04:43:51;;;;;;;4.65;1.38;;;;;;;9.93;100.00;99523.75;5030798;28;21644;-69
2023/03/31 04:46:18;;;;;;;10.52;1.98;;;;;;;9.93;100.00;99518.50;5043545;28;21791;-70
2023/03/31 04:48:46;;;;;;;9.70;2.05;;;;;;;9.88;100.00;99518.84;5043068;28;20140;-69
2023/03/31 04:51:14;;;;;;;5.63;1.73;;;;;;;9.90;100.00;99513.44;5023688;28;20049;-70
2023/03/31 04:53:41;;;;;;;7.43;1.63;;;;;;;9.95;100.00;99516.59;5047734;28;20153;-68
2023/03/31 04:56:09;;;;;;;7.57;1.98;;;;;;;10.03;100.00;99518.66;5048376;28;20131;-69
2023/03/31 04:58:37;;;;;;;6.40;1.50;;;;;;;9.98;100.00;99511.09;5027368;28;20059;-69
2023/03/31 05:01:07;;;;;;;9.48;1.60;;;;;;;9.99;100.00;99518.03;5019875;28;20083;-71
2023/03/31 05:03:34;;;;;;;5.32;1.83;;;;;;;9.89;100.00;99509.16;5031865;28;20128;-67
2023/03/31 05:06:02;;;;;;;4.78;2.00;;;;;;;9.84;100.00;99506.88;5045519;28;20051;-68
2023/03/31 05:08:29;;;;;;;9.95;2.38;;;;;;;9.79;100.00;99501.09;5041628;28;20045;-71
2023/03/31 05:10:56;;;;;;;10.32;2.03;;;;;;;9.89;100.00;99493.38;5034867;28;20056;-69
2023/03/31 05:13:24;;;;;;;3.28;1.40;;;;;;;9.83;100.00;99496.47;5038970;28;20045;-68
2023/03/31 05:15:51;;;;;;;4.65;1.85;;;;;;;9.81;100.00;99485.22;5044669;28;20061;-70
2023/03/31 05:18:18;;;;;;;7.20;2.00;;;;;;;9.81;100.00;99480.78;5043782;28;20059;-67
2023/03/31 05:20:45;;;;;;;6.53;1.70;;;;;;;9.85;100.00;99474.38;5024558;28;20319;-69
2023/03/31 05:23:13;;;;;;;7.50;2.00;;;;;;;9.81;100.00;99474.69;5048094;28;20071;-70
2023/03/31 05:25:41;;;;;;;8.50;2.20;;;;;;;9.85;100.00;99469.09;5045402;28;20053;-69
2023/03/31 05:28:09;;;;;;;6.82;1.83;;;;;;;9.85;100.00;99481.41;5005515;28;20408;-69
2023/03/31 05:30:36;;;;;;;7.03;1.63;;;;;;;9.89;100.00;99480.25;5026055;28;20052;-67
2023/03/31 05:33:03;;;;;;;8.70;2.08;;;;;;;9.86;100.00;99476.06;5036766;28;20048;-68
2023/03/31 05:35:30;;;;;;;9.07;1.85;;;;;;;9.84;100.00;99472.69;5042755;28;20152;-69
2023/03/31 05:37:58;;;;;;;9.02;1.70;;;;;;;9.90;100.00;99469.59;5048185;28;20473;-68
2023/03/31 05:40:25;;;;;;;9.35;2.03;;;;;;;9.86;100.00;99460.28;5028589;28;20905;-67
2023/03/31 05:42:52;;;;;;;9.70;1.98;;;;;;;9.89;100.00;99461.84;5043401;28;20136;-67
2023/03/31 05:45:19;;;;;;;8.18;2.15;;;;;;;9.88;100.00;99455.75;5048906;28;20040;-68
2023/03/31 05:47:46;;;;;;;6.10;2.35;;;;;;;9.92;100.00;99456.34;5048731;28;20057;-72
2023/03/31 05:50:14;;;;;;;7.03;1.75;;;;;;;9.97;100.00;99456.84;5029818;28;20051;-68
2023/03/31 05:52:42;;;;;;;11.38;2.47;;;;;;;10.02;100.00;99452.06;5038257;28;20048;-68
2023/03/31 05:55:09;;;;;;;8.38;2.10;;;;;;;10.09;100.00;99452.47;5029941;28;20068;-70
2023/03/31 05:57:36;;;;;;;7.88;2.03;;;;;;;10.09;100.00;99447.22;5016442;28;20152;-67
2023/03/31 06:00:05;;;;;;;5.25;1.80;;;;;;;10.16;100.00;99448.41;5049471;28;20053;-68
2023/03/31 06:02:32;;;;;;;9.43;2.25;;;;;;;10.18;99.86;99446.50;5032056;28;20073;-70
2023/03/31 06:05:00;;;;;;;9.13;1.75;;;;;;;10.14;99.74;99439.81;5047557;28;20136;-70
2023/03/31 06:07:27;;;;;;;5.32;2.08;;;;;;;10.11;100.00;99438.22;5047696;28;20148;-68
2023/03/31 06:09:54;;;;;;;7.97;2.05;;;;;;;10.07;99.95;99431.53;5045381;28;20473;-68
2023/03/31 06:12:21;;;;;;;7.20;1.90;;;;;;;10.10;100.00;99431.31;5046631;28;20540;-67
2023/03/31 06:14:49;;;;;;;8.63;2.70;;;;;;;10.15;100.00;99434.41;5045033;28;20128;-68
2023/03/31 06:17:16;;;;;;;8.38;2.22;;;;;;;10.21;99.56;99427.00;5046688;28;20052;-68
2023/03/31 06:19:43;;;;;;;12.30;2.50;;;;;;;10.27;99.55;99426.59;5038990;28;20056;-67
2023/03/31 06:22:10;;;;;;;6.95;2.60;;;;;;;10.29;99.57;99420.25;5044636;28;20041;-69
2023/03/31 06:24:37;;;;;;;13.30;2.22;;;;;;;10.37;98.82;99422.28;5045883;28;20416;-68
2023/03/31 06:27:05;;;;;;;6.88;1.88;;;;;;;10.40;98.59;99414.13;5044023;28;20501;-69
2023/03/31 06:29:33;;;;;;;7.55;2.40;;;;;;;10.40;98.60;99411.50;5006369;28;20488;-69
2023/03/31 06:32:00;;;;;;;17.60;2.63;;;;;;;10.38;98.03;99413.44;5040486;28;20314;-67
2023/03/31 06:34:28;;;;;;;10.40;2.67;;;;;;;10.33;98.04;99403.28;5024819;28;20140;-67
2023/03/31 06:36:55;;;;;;;9.85;2.80;;;;;;;10.34;98.48;99412.00;5047708;28;20268;-67
2023/03/31 06:39:22;;;;;;;7.65;2.28;;;;;;;10.38;98.17;99406.38;5046712;28;20480;-67
2023/03/31 06:41:52;;;;;;;10.40;2.25;;;;;;;10.40;97.94;99403.63;5043970;28;20140;-67
2023/03/31 06:44:21;;;;;;;10.40;2.80;;;;;;;10.44;97.88;99406.84;5041507;28;20056;-67
2023/03/31 06:46:49;;;;;;;8.57;2.10;;;;;;;10.50;97.77;99414.28;5046088;28;20055;-67
2023/03/31 06:49:16;;;;;;;7.85;1.85;;;;;;;10.58;97.16;99402.22;5041157;28;20505;-68
2023/03/31 06:51:43;;;;;;;9.77;2.90;;;;;;;10.68;96.61;99396.22;5022174;28;20193;-69
2023/03/31 06:54:11;;;;;;;7.68;2.25;;;;;;;10.75;96.38;99411.38;5041386;28;20049;-68
2023/03/31 06:56:38;;;;;;;7.72;2.47;;;;;;;10.71;95.38;99399.44;5044200;28;20530;-68
2023/03/31 06:59:05;;;;;;;8.95;2.28;;;;;;;10.74;95.55;99399.19;5022841;28;20048;-67
2023/03/31 07:01:36;;;;;;;11.68;3.45;;;;;;;10.77;95.78;99392.88;5027855;28;20070;-68
2023/03/31 07:04:03;;;;;;;5.35;2.25;;;;;;;10.84;95.53;99391.41;5026186;28;20527;-68
2023/03/31 07:06:31;;;;;;;6.88;2.33;;;;;;;10.97;94.93;99383.38;5041930;28;20057;-68
2023/03/31 07:08:58;;;;;;;10.43;2.70;;;;;;;11.02;94.19;99386.47;5041684;28;20136;-69
2023/03/31 07:11:25;;;;;;;11.38;2.58;;;;;;;11.09;93.32;99388.47;5025134;28;20044;-66
2023/03/31 07:13:52;;;;;;;9.32;2.15;;;;;;;11.11;92.96;99385.72;5039431;28;20388;-66
2023/03/31 07:16:20;;;;;;;12.10;3.28;;;;;;;11.09;93.23;99382.38;5046274;28;20060;-67
2023/03/31 07:18:49;;;;;;;5.85;2.15;;;;;;;11.13;93.19;99382.00;5036126;28;20061;-66
2023/03/31 07:21:16;;;;;;;9.43;2.53;;;;;;;11.13;92.88;99374.09;5040161;28;20514;-67
2023/03/31 07:23:43;;;;;;;10.52;2.78;;;;;;;11.16;92.87;99373.84;5041702;28;20061;-67
2023/03/31 07:26:11;;;;;;;15.15;2.83;;;;;;;11.22;92.21;99366.44;5025354;28;20072;-67
2023/03/31 07:28:38;;;;;;;14.13;3.08;;;;;;;11.28;91.86;99361.47;5043621;28;20531;-67
2023/03/31 07:31:13;;;;;;;6.50;2.60;;;;;;;11.34;91.46;99360.13;5043940;28;20085;-67
2023/03/31 07:33:41;;;;;;;14.43;3.13;;;;;;;11.41;91.43;99358.69;5035471;28;20057;-66
2023/03/31 07:36:09;;;;;;;8.23;2.42;;;;;;;11.46;91.42;99356.50;5039759;28;20057;-66
2023/03/31 07:38:45;;;;;;;10.32;2.25;;;;;;;11.49;91.21;99366.78;5045066;28;20057;-67
2023/03/31 07:41:14;;;;;;;11.43;3.17;;;;;;;11.49;90.48;99366.78;5041418;28;20055;-67
2023/03/31 07:43:41;;;;;;;9.07;2.95;;;;;;;11.50;90.57;99351.81;5041408;28;20053;-67
2023/03/31 07:46:38;;;;;;;11.95;2.58;;;;;;;11.55;90.66;99350.44;5042910;28;20140;-67
2023/03/31 07:49:06;;;;;;;12.10;2.83;;;;;;;11.59;90.55;99343.13;5007089;28;20321;-67
2023/03/31 07:51:34;;;;;;;8.65;2.63;;;;;;;11.66;89.90;99345.13;5040709;28;20136;-67
2023/03/31 07:54:01;;;;;;;7.55;1.90;;;;;;;11.73;89.08;99334.06;5046032;28;20040;-67
2023/03/31 07:56:28;;;;;;;9.18;2.30;;;;;;;11.84;88.88;99336.66;5047581;28;20083;-66
2023/03/31 07:58:56;;;;;;;13.18;2.40;;;;;;;11.95;87.68;99341.03;5047792;28;20596;-68
2023/03/31 08:01:24;;;;;;;9.23;2.13;;;;;;;12.03;87.67;99338.59;5048390;28;20057;-68
2023/03/31 08:03:54;;;;;;;8.60;1.95;;;;;;;12.05;87.31;99336.63;5029362;28;20072;-66
2023/03/31 08:06:22;;;;;;;7.65;2.10;;;;;;;12.10;86.36;99327.34;5025298;28;20053;-67
2023/03/31 08:08:50;;;;;;;8.25;1.83;;;;;;;12.18;86.35;99329.34;5032170;28;20059;-68
2023/03/31 08:11:18;;;;;;;7.05;2.47;;;;;;;12.14;85.09;99322.66;5046179;28;20041;-68
2023/03/31 08:13:46;;;;;;;9.43;2.30;;;;;;;12.20;85.37;99316.00;5032861;28;20084;-67
2023/03/31 08:16:13;;;;;;;5.53;1.98;;;;;;;12.34;84.92;99313.88;5045665;28;20053;-67
2023/03/31 08:18:41;;;;;;;5.10;1.85;;;;;;;12.32;85.23;99315.78;5047665;28;20059;-68
2023/03/31 08:21:11;;;;;;;10.15;1.77;;;;;;;12.29;85.38;99309.94;5039044;28;20177;-67
2023/03/31 08:23:38;;;;;;;7.40;2.05;;;;;;;12.44;84.24;99308.63;5046197;28;20106;-68
2023/03/31 08:26:10;;;;;;;7.72;1.67;;;;;;;12.46;83.71;99308.47;5045540;28;20068;-67
2023/03/31 08:28:37;;;;;;;7.22;1.50;;;;;;;12.51;84.64;99308.91;5048613;28;20140;-67
2023/03/31 08:31:06;;;;;;;5.43;1.38;;;;;;;12.62;83.74;99292.97;5048532;28;20041;-67
2023/03/31 08:33:34;;;;;;;11.75;2.10;;;;;;;12.71;83.19;99294.78;5043704;28;20567;-66
2023/03/31 08:36:07;;;;;;;10.38;2.30;;;;;;;12.71;82.28;99292.16;5038970;28;20080;-66
2023/03/31 08:38:37;;;;;;;12.02;2.45;;;;;;;12.71;82.21;99302.69;5040736;28;20045;-67
2023/03/31 08:41:06;;;;;;;12.57;2.30;;;;;;;12.82;82.02;99289.38;5030343;28;20616;-67
2023/03/31 08:43:41;;;;;;;11.48;1.90;;;;;;;12.94;82.34;99282.16;5035285;28;20049;-67
2023/03/31 08:46:11;;;;;;;7.37;1.93;;;;;;;13.08;81.65;99270.34;5055938;28;20136;-66
2023/03/31 08:48:47;;;;;;;13.38;2.45;;;;;;;13.23;81.34;99266.31;5032515;28;20149;-67
2023/03/31 08:51:20;;;;;;;9.70;2.28;;;;;;;13.30;81.29;99270.09;5028789;28;20095;-66
2023/03/31 08:54:15;;;;;;;6.65;1.73;;;;;;;13.47;80.04;99265.88;5030325;28;20067;-66
2023/03/31 08:56:46;;;;;;;10.18;1.85;;;;;;;13.52;79.00;99263.66;5013314;28;20136;-67
2023/03/31 08:59:25;;;;;;;5.63;1.75;;;;;;;13.48;78.10;99264.91;5035854;28;20442;-66
2023/03/31 09:01:55;;;;;;;6.75;2.00;;;;;;;13.54;78.86;99260.84;5049681;28;20144;-66
2023/03/31 09:04:26;;;;;;;5.97;1.73;;;;;;;13.62;78.84;99267.09;5031196;28;20441;-66
2023/03/31 09:07:27;;;;;;;9.18;2.10;;;;;;;13.56;78.46;99249.16;5046248;28;20454;-67
2023/03/31 09:10:12;;;;;;;7.45;1.88;;;;;;;13.66;79.08;99255.25;5049625;28;20469;-67
2023/03/31 09:12:55;;;;;;;7.70;2.20;;;;;;;13.72;78.21;99248.56;5048279;28;20053;-67
2023/03/31 09:15:28;;;;;;;7.20;2.00;;;;;;;13.88;77.98;99250.59;5049577;28;20488;-67
2023/03/31 09:17:59;;;;;;;7.82;1.88;;;;;;;13.84;76.69;99243.94;5051928;28;20080;-68
2023/03/31 09:20:31;;;;;;;5.85;1.70;;;;;;;13.91;77.55;99245.88;5026148;28;20548;-67
2023/03/31 09:23:01;;;;;;;5.53;2.05;;;;;;;13.98;78.16;99237.34;5029486;28;20376;-66
2023/03/31 09:25:33;;;;;;;9.75;2.30;;;;;;;14.10;77.13;99233.53;5047186;28;20513;-67
2023/03/31 09:28:02;;;;;;;5.03;1.67;;;;;;;14.11;75.88;99230.72;5046163;28;20082;-66
2023/03/31 09:30:33;;;;;;;8.55;2.17;;;;;;;14.15;76.15;99215.38;5030028;28;20087;-67
2023/03/31 09:33:42;;;;;;;9.73;1.73;;;;;;;14.42;75.79;99215.38;5018209;28;20053;-66
2023/03/31 09:36:17;;;;;;;9.07;2.00;;;;;;;14.47;76.21;99214.09;4954423;28;20450;-65
2023/03/31 09:38:45;;;;;;;10.95;2.22;;;;;;;14.48;74.72;99208.66;4963347;28;20058;-66
2023/03/31 09:41:15;;;;;;;6.70;1.98;;;;;;;14.49;74.68;99204.19;4995716;28;20079;-67
2023/03/31 09:43:44;;;;;;;12.98;2.30;;;;;;;14.27;75.08;99194.81;5037714;28;20057;-66
2023/03/31 09:46:17;;;;;;;9.77;1.85;;;;;;;14.26;75.54;99193.16;5035049;28;20048;-72
2023/03/31 09:48:51;;;;;;;7.82;2.15;;;;;;;13.95;75.17;99193.47;5018269;28;20063;-68
2023/03/31 09:51:25;;;;;;;6.78;1.63;;;;;;;13.70;75.44;99179.13;5014978;28;20049;-70
2023/03/31 09:54:01;;;;;;;5.57;2.00;;;;;;;13.72;75.77;99181.59;5028194;28;20136;-72
2023/03/31 09:56:51;;;;;;;8.43;1.92;;;;;;;13.73;75.32;99170.03;5019265;28;20132;-69
2023/03/31 09:59:21;;;;;;;4.75;1.70;;;;;;;13.77;75.63;99171.41;5016113;28;20330;-69
2023/03/31 10:01:51;;;;;;;5.25;1.73;;;;;;;13.82;75.31;99175.28;5025764;28;20140;-68
2023/03/31 10:04:23;;;;;;;9.18;1.80;;;;;;;13.74;74.56;99171.72;5038596;28;20421;-68
2023/03/31 10:06:53;;;;;;;4.63;1.65;;;;;;;13.71;74.90;99178.13;4998505;28;20144;-68
2023/03/31 10:09:24;;;;;;;7.68;2.03;;;;;;;13.62;74.97;99169.25;5010798;28;20514;-68
2023/03/31 10:11:54;;;;;;;15.57;2.30;;;;;;;13.52;76.08;99154.41;5021372;28;20052;-68
2023/03/31 10:14:52;;;;;;;4.53;1.50;;;;;;;13.40;75.94;99161.69;5019054;28;20528;-67
2023/03/31 10:17:22;;;;;;;11.20;2.35;;;;;;;13.41;76.07;99143.03;5016825;28;20144;-68
2023/03/31 10:19:56;;;;;;;12.93;2.28;;;;;;;13.45;75.80;99156.78;5036338;28;20052;-68
2023/03/31 10:22:29;;;;;;;6.20;1.50;;;;;;;13.34;76.11;99151.69;5017476;28;20079;-69
2023/03/31 10:25:17;;;;;;;4.88;1.40;;;;;;;13.48;76.24;99135.38;5023309;28;20775;-69
2023/03/31 10:27:47;;;;;;;6.25;1.90;;;;;;;13.55;76.22;99128.50;5022663;28;20053;-68
2023/03/31 10:30:21;;;;;;;3.58;1.45;;;;;;;13.55;76.63;99127.66;5034215;28;20049;-69
2023/03/31 10:32:48;;;;;;;5.93;1.92;;;;;;;13.53;77.40;99133.13;5022957;28;20055;-68
2023/03/31 10:35:26;;;;;;;7.75;2.28;;;;;;;13.64;77.60;99127.66;5016063;28;20049;-68
2023/03/31 10:37:56;;;;;;;13.57;2.33;;;;;;;13.62;78.14;99126.94;5002279;28;20619;-69
2023/03/31 10:40:25;;;;;;;6.53;1.92;;;;;;;13.56;79.16;99127.53;5014033;28;20596;-70
2023/03/31 10:43:11;;;;;;;6.28;1.98;;;;;;;13.65;78.87;99120.56;5023749;28;20559;-69
2023/03/31 10:45:46;;;;;;;8.02;2.15;;;;;;;13.39;78.52;99129.13;5033820;28;20056;-69
2023/03/31 10:48:24;;;;;;;4.07;1.60;;;;;;;13.48;78.85;99118.69;5017388;28;20477;-70
2023/03/31 10:50:52;;;;;;;8.65;2.90;;;;;;;13.40;79.00;99119.38;5037713;28;20151;-69
2023/03/31 10:53:19;;;;;;;4.13;1.48;;;;;;;13.42;78.69;99117.44;5035153;28;20976;-67
2023/03/31 10:56:12;;;;;;;6.35;1.95;;;;;;;13.50;78.76;99106.13;5017167;28;20486;-70
2023/03/31 10:58:45;;;;;;;5.00;1.45;;;;;;;13.43;77.24;99114.66;5023973;28;20067;-70
2023/03/31 11:01:45;;;;;;;6.68;1.98;;;;;;;13.43;77.88;99112.00;5034992;28;20048;-69
2023/03/31 11:04:42;;;;;;;6.03;2.00;;;;;;;13.48;77.87;99095.72;5022348;28;20083;-70
2023/03/31 11:07:19;;;;;;;4.25;1.42;;;;;;;13.49;78.45;99094.72;5036960;28;20045;-69
2023/03/31 11:10:00;;;;;;;4.82;1.75;;;;;;;13.62;79.32;99089.09;5019484;28;20214;-69
2023/03/31 11:12:42;;;;;;;4.57;1.83;;;;;;;13.71;81.61;99092.69;5040367;28;20498;-69
2023/03/31 11:15:31;;;;;;;3.35;1.27;;;;;;;13.58;82.57;99093.84;5012912;28;20201;-70
2023/03/31 11:18:20;;;;;;;4.55;1.38;;;;;;;13.75;83.43;99086.13;5037575;28;20061;-69
2023/03/31 11:21:09;;;;;;;6.45;2.10;;;;;;;13.86;82.75;99077.97;5011882;28;20152;-69
2023/03/31 11:23:43;;;;;;;7.32;2.45;;;;;;;14.01;83.68;99073.00;5035929;28;20051;-70
2023/03/31 11:26:20;;;;;;;4.82;1.50;;;;;;;14.14;82.99;99069.00;5034255;28;20125;-69
2023/03/31 11:29:08;;;;;;;8.07;1.75;;;;;;;13.91;80.95;99062.47;5027244;28;20175;-70
2023/03/31 11:32:00;;;;;;;4.70;1.40;;;;;;;13.97;80.75;99061.06;5042384;28;20044;-68
2023/03/31 11:34:48;;;;;;;4.43;1.63;;;;;;;13.98;79.54;99047.66;5041589;28;20036;-68
2023/03/31 11:37:30;;;;;;;4.10;1.27;;;;;;;14.06;79.55;99045.09;5036931;28;20071;-68
2023/03/31 11:40:22;;;;;;;4.45;1.77;;;;;;;14.09;80.01;99028.06;5020281;28;20048;-69
2023/03/31 11:42:54;;;;;;;6.30;1.60;;;;;;;14.03;78.63;99026.88;5029818;28;20045;-68
2023/03/31 11:45:30;;;;;;;5.93;2.00;;;;;;;14.03;78.47;99015.47;5018411;28;20053;-68
2023/03/31 11:48:05;;;;;;;7.05;1.67;;;;;;;14.06;78.32;99012.53;5036307;28;20060;-70
2023/03/31 11:50:37;;;;;;;6.22;1.30;;;;;;;14.19;77.54;99015.63;5013059;28;20071;-70
2023/03/31 11:53:26;;;;;;;5.10;1.48;;;;;;;14.34;77.68;99019.38;5031034;28;20047;-68
2023/03/31 11:55:54;;;;;;;6.95;2.05;;;;;;;14.37;77.82;99013.78;5027707;28;20047;-68
2023/03/31 11:58:26;;;;;;;5.05;1.90;;;;;;;14.47;77.00;99013.69;5028334;28;20501;-69